Time;durP1;ratioP1;P1;durP2;ratioP2;P2;SDS_P1;SDS_P2;PMS_P1;PMS_P2;Temp;Humidity;BMP_temperature;BMP_pressure;BME280_temperature;BME280_humidity;BME280_pressure;Samples;Min_cycle;Max_cycle;Signal;HPM_P1;HPM_P2
2023/10/06 00:00:51;;;;;;;6.13;3.30;;;;;;;2.81;100.00;96776.13;7431286;19;20396;-95
2023/10/06 00:04:43;;;;;;;3.93;3.50;;;;;;;3.98;100.00;96943.78;7432380;19;20411;-96
2023/10/06 00:07:50;;;;;;;5.07;3.33;;;;;;;3.15;100.00;96797.19;7427824;19;20412;-95
2023/10/06 00:10:35;;;;;;;4.50;2.90;;;;;;;4.42;100.00;97011.91;7432549;19;20412;-94
2023/10/06 00:13:22;;;;;;;4.73;3.40;;;;;;;3.55;100.00;96877.25;7431136;19;20392;-96
2023/10/06 00:17:04;;;;;;;4.40;3.07;;;;;;;3.33;100.00;96861.91;7429078;19;20523;-96
2023/10/06 00:20:56;;;;;;;3.67;3.37;;;;;;;4.42;100.00;96998.81;7429163;19;20387;-96
2023/10/06 00:24:16;;;;;;;3.60;2.40;;;;;;;4.33;100.00;96997.00;7429564;19;20396;-95
2023/10/06 00:27:30;;;;;;;3.20;2.40;;;;;;;4.15;100.00;96993.19;7424111;19;20404;-94
2023/10/06 00:30:31;;;;;;;5.03;2.70;;;;;;;3.38;100.00;96885.44;7426147;19;20421;-95
2023/10/06 00:33:37;;;;;;;6.37;2.60;;;;;;;2.41;100.00;96735.22;7429764;19;20368;-95
2023/10/06 00:36:29;;;;;;;3.10;2.13;;;;;;;2.93;100.00;96847.88;7425947;19;20428;-94
2023/10/06 00:39:43;;;;;;;4.43;2.73;;;;;;;3.67;100.00;96979.72;7425995;19;21154;-95
2023/10/06 00:47:05;;;;;;;4.30;2.57;;;;;;;2.31;100.00;96773.31;7430932;19;20419;-96
2023/10/06 00:50:21;;;;;;;;;;;;;;;;;;;;;
2023/10/06 01:25:21;;;;;;;9.47;4.70;;;;;;;3.45;100.00;96982.63;7409286;19;20440;-95
2023/10/06 01:28:14;;;;;;;4.73;4.20;;;;;;;3.58;100.00;96988.34;7424928;19;20455;-94
2023/10/06 01:35:39;;;;;;;10.83;6.10;;;;;;;2.53;100.00;96894.91;7428503;19;20456;-96
2023/10/06 01:38:29;;;;;;;7.00;5.50;;;;;;;3.27;100.00;96985.78;7428214;19;20399;-96
2023/10/06 01:41:34;;;;;;;9.50;5.83;;;;;;;1.88;100.00;96755.59;7425472;19;20400;-95
2023/10/06 01:50:55;;;;;;;5.27;4.20;;;;;;;2.60;100.00;96864.13;7425599;19;20396;-96
2023/10/06 01:53:39;;;;;;;5.63;4.63;;;;;;;1.84;100.00;96749.31;7428574;19;20415;-95
2023/10/06 01:56:07;;;;;;;6.57;5.67;;;;;;;2.66;100.00;96861.22;7429790;19;20400;-95
2023/10/06 01:58:51;;;;;;;5.10;4.60;;;;;;;2.46;100.00;96839.59;7429030;19;20392;-94
2023/10/06 02:01:32;;;;;;;6.70;4.67;;;;;;;3.18;100.00;96977.69;7427176;19;20389;-94
2023/10/06 02:04:00;;;;;;;5.80;4.37;;;;;;;1.58;100.00;96730.25;7421050;19;20377;-95
2023/10/06 02:06:51;;;;;;;9.00;4.60;;;;;;;2.16;100.00;96827.31;7422663;19;20417;-94
2023/10/06 02:09:32;;;;;;;11.30;6.03;;;;;;;2.33;100.00;96893.06;7426328;19;20410;-95
2023/10/06 02:12:13;;;;;;;9.77;5.33;;;;;;;1.54;100.00;96783.91;7423321;19;20408;-96
2023/10/06 02:14:48;;;;;;;10.10;6.23;;;;;;;2.82;100.00;96969.09;7433559;19;20394;-96
2023/10/06 02:17:22;;;;;;;7.90;4.87;;;;;;;2.02;100.00;96820.00;7434551;19;20425;-96
2023/10/06 02:20:51;;;;;;;6.70;5.40;;;;;;;2.85;100.00;96971.16;7432163;19;20396;-96
2023/10/06 02:24:20;;;;;;;10.13;4.90;;;;;;;1.44;100.00;96797.69;7428071;19;20385;-94
2023/10/06 02:27:12;;;;;;;12.83;4.80;;;;;;;2.97;100.00;96955.25;7428881;19;20384;-96
2023/10/06 02:30:10;;;;;;;6.90;4.93;;;;;;;2.17;100.00;96828.88;7432374;19;20367;-95
2023/10/06 02:33:18;;;;;;;7.83;5.30;;;;;;;1.42;100.00;96719.03;7423565;19;20456;-94
2023/10/06 02:40:00;;;;;;;8.23;5.60;;;;;;;1.73;100.00;96796.19;7428575;19;20393;-96
2023/10/06 02:43:20;;;;;;;7.73;5.13;;;;;;;3.12;100.00;96972.75;7424520;19;20400;-95
2023/10/06 02:47:04;;;;;;;13.70;5.80;;;;;;;3.12;100.00;96968.28;7428564;19;20408;-96
2023/10/06 02:50:21;;;;;;;13.10;6.50;;;;;;;3.03;100.00;96966.47;7428952;19;20375;-95
2023/10/06 03:08:48;;;;;;;15.47;6.70;;;;;;;2.18;100.00;96833.06;7428034;19;20467;-96
2023/10/06 03:12:12;;;;;;;9.83;5.67;;;;;;;3.18;100.00;96964.63;7428019;19;20388;-95
2023/10/06 03:15:49;;;;;;;8.90;5.67;;;;;;;1.93;100.00;96782.44;7428426;19;20423;-94
2023/10/06 03:18:38;;;;;;;18.50;7.00;;;;;;;3.16;100.00;96963.31;7428167;19;20418;-96
2023/10/06 03:24:05;;;;;;;20.93;6.60;;;;;;;3.18;100.00;96974.28;7428522;19;20421;-94
2023/10/06 03:26:46;;;;;;;13.03;5.10;;;;;;;1.58;100.00;96732.84;7426092;19;20416;-96
2023/10/06 03:29:53;;;;;;;24.30;6.13;;;;;;;2.12;100.00;96827.03;7425493;19;20384;-95
2023/10/06 03:32:13;;;;;;;19.87;5.40;;;;;;;1.88;100.00;96829.38;7425767;19;20385;-96
2023/10/06 03:34:58;;;;;;;7.93;5.13;;;;;;;2.08;100.00;96839.03;7424313;19;20384;-95
2023/10/06 03:37:51;;;;;;;13.10;5.47;;;;;;;3.00;100.00;96980.06;7425958;19;20433;-95
2023/10/06 03:40:30;;;;;;;17.43;5.60;;;;;;;2.99;100.00;96974.03;7434419;19;20393;-96
2023/10/06 03:43:14;;;;;;;8.60;7.43;;;;;;;1.96;100.00;96836.66;7431484;19;20439;-96
2023/10/06 03:45:56;;;;;;;7.47;4.63;;;;;;;1.13;100.00;96701.25;7432612;19;20439;-96
2023/10/06 03:48:32;;;;;;;11.63;6.00;;;;;;;2.21;100.00;96871.66;7434356;19;20392;-95
2023/10/06 04:49:14;;;;;;;21.93;6.97;;;;;;;2.32;100.00;96837.50;7401018;19;20914;-91
2023/10/06 04:52:42;;;;;;;25.47;7.70;;;;;;;1.20;100.00;96651.50;7392310;19;20410;-91
2023/10/06 05:00:19;;;;;;;19.97;6.60;;;;;;;1.30;100.00;96664.56;7421769;19;20384;-87
2023/10/06 05:03:23;;;;;;;24.27;6.43;;;;;;;2.25;100.00;96804.88;7391668;19;20820;-89
2023/10/06 05:06:00;;;;;;;24.33;7.37;;;;;;;1.12;100.00;96621.56;7395263;19;20380;-89
2023/10/06 05:08:39;;;;;;;20.47;5.70;;;;;;;1.51;100.00;96670.59;7392025;19;20437;-89
2023/10/06 05:11:14;;;;;;;13.83;6.30;;;;;;;1.07;100.00;96600.75;7392150;19;20388;-91
2023/10/06 05:13:57;;;;;;;8.60;4.90;;;;;;;2.48;100.00;96814.78;7394463;19;20813;-90
2023/10/06 05:16:27;;;;;;;16.97;5.90;;;;;;;2.07;100.00;96746.19;7393316;19;20401;-90
2023/10/06 05:18:58;;;;;;;13.93;6.30;;;;;;;1.47;100.00;96633.06;7394256;19;20412;-90
2023/10/06 05:21:36;;;;;;;12.13;6.20;;;;;;;2.50;100.00;96781.38;7393720;19;20494;-90
2023/10/06 05:24:10;;;;;;;20.03;8.33;;;;;;;1.59;100.00;96635.41;7396012;19;20455;-90
2023/10/06 05:26:49;;;;;;;8.47;5.40;;;;;;;1.76;100.00;96644.53;7391937;19;20941;-90
2023/10/06 05:29:19;;;;;;;11.90;4.70;;;;;;;2.40;100.00;96772.78;7398399;19;20376;-90
2023/10/06 05:31:47;;;;;;;10.30;5.43;;;;;;;1.82;100.00;96642.69;7398431;19;20444;-89
2023/10/06 05:34:17;;;;;;;13.83;4.93;;;;;;;1.58;100.00;96639.06;7395507;19;20381;-90
2023/10/06 05:36:44;;;;;;;8.83;5.23;;;;;;;1.62;100.00;96656.53;7397526;19;20716;-90
2023/10/06 05:39:12;;;;;;;14.00;5.27;;;;;;;2.50;100.00;96783.22;7400108;19;21021;-89
2023/10/06 05:42:08;;;;;;;14.70;5.33;;;;;;;3.29;100.00;96905.28;7417126;19;20437;-89
2023/10/06 05:46:23;;;;;;;;;;;;;;;;;;;;;
2023/10/06 05:49:43;;;;;;;12.00;5.07;;;;;;;1.85;100.00;96691.69;7401051;19;20987;-89
2023/10/06 05:52:51;;;;;;;16.57;5.07;;;;;;;1.51;100.00;96638.53;7400731;19;20393;-89
2023/10/06 05:55:53;;;;;;;15.37;5.40;;;;;;;1.55;100.00;96642.97;7400723;19;20388;-89
2023/10/06 06:08:47;;;;;;;22.20;7.10;;;;;;;4.07;100.00;97028.50;7435358;19;20441;-95
2023/10/06 06:16:02;;;;;;;13.97;7.53;;;;;;;3.46;100.00;96911.00;7433058;19;20401;-95
2023/10/06 06:31:04;;;;;;;27.90;10.30;;;;;;;3.71;100.00;96944.13;7385657;19;20472;-94
2023/10/06 06:33:56;;;;;;;24.40;10.77;;;;;;;4.33;100.00;97041.50;7437012;19;20416;-94
2023/10/06 06:36:48;;;;;;;21.10;13.40;;;;;;;2.79;100.00;96812.13;7434817;19;20474;-96
2023/10/06 06:40:06;;;;;;;20.17;9.87;;;;;;;4.27;100.00;97029.47;7434843;19;20380;-95
2023/10/06 06:42:55;;;;;;;38.77;10.00;;;;;;;4.40;100.00;97021.06;7435006;19;20381;-95
2023/10/06 06:45:51;;;;;;;24.63;10.87;;;;;;;3.34;100.00;96847.81;7433030;19;20385;-96
2023/10/06 06:48:39;;;;;;;15.97;9.50;;;;;;;4.53;100.00;97038.00;7435719;19;20369;-95
2023/10/06 06:51:30;;;;;;;22.80;11.30;;;;;;;4.48;100.00;97040.66;7433728;19;20415;-94
2023/10/06 06:54:19;;;;;;;28.30;11.07;;;;;;;3.36;100.00;96855.38;7433304;19;20405;-96
2023/10/06 06:56:57;;;;;;;29.37;12.13;;;;;;;3.71;100.00;96909.34;7431282;19;20453;-94
2023/10/06 06:59:45;;;;;;;28.67;11.37;;;;;;;4.30;100.00;97000.97;7430805;19;20397;-96
2023/10/06 07:02:34;;;;;;;30.30;11.87;;;;;;;3.64;100.00;96911.50;7431495;19;20385;-96
2023/10/06 07:05:48;;;;;;;22.50;10.83;;;;;;;4.49;100.00;97050.09;7431679;19;20373;-96
2023/10/06 07:08:37;;;;;;;22.70;12.40;;;;;;;4.55;100.00;97055.03;7434070;19;20384;-96
2023/10/06 07:11:12;;;;;;;22.33;12.40;;;;;;;4.55;100.00;97051.66;7435252;19;20444;-95
2023/10/06 07:14:06;;;;;;;21.63;11.73;;;;;;;3.88;100.00;96929.97;7433150;19;20407;-95
2023/10/06 07:16:56;;;;;;;28.87;13.90;;;;;;;4.69;100.00;97044.75;7431255;19;20464;-96
2023/10/06 07:19:45;;;;;;;24.50;12.90;;;;;;;4.54;100.00;96926.97;7434949;19;20404;-95
2023/10/06 07:22:31;;;;;;;24.20;13.60;;;;;;;3.46;100.00;96777.69;7433218;19;20437;-95
2023/10/06 07:25:15;;;;;;;29.83;13.13;;;;;;;3.92;100.00;96870.84;7432668;19;20428;-95
2023/10/06 07:28:11;;;;;;;27.43;12.43;;;;;;;4.69;100.00;97008.09;7429558;19;20440;-95
2023/10/06 07:30:55;;;;;;;15.93;11.00;;;;;;;4.91;100.00;97002.44;7430541;19;20421;-95
2023/10/06 07:33:39;;;;;;;16.70;10.30;;;;;;;5.06;100.00;97004.94;7433822;19;20389;-96
2023/10/06 07:36:42;;;;;;;18.20;11.53;;;;;;;5.24;100.00;97017.41;7430735;19;20416;-96
2023/10/06 08:20:13;;;;;;;16.47;9.27;;;;;;;3.82;100.00;96780.13;7396069;19;20448;-90
2023/10/06 08:23:55;;;;;;;15.40;9.93;;;;;;;4.70;100.00;96866.38;7395295;19;20384;-90
2023/10/06 08:38:51;;;;;;;14.83;10.43;;;;;;;4.36;100.00;96759.06;7392742;19;20397;-90
2023/10/06 08:42:51;;;;;;;13.10;10.43;;;;;;;6.76;100.00;97061.50;7395195;19;20381;-90
2023/10/06 08:46:49;;;;;;;8.70;7.40;;;;;;;5.61;100.00;96879.66;7405221;19;20412;-90
2023/10/06 09:16:18;;;;;;;14.10;9.80;;;;;;;7.11;100.00;97058.41;7432326;19;20389;-90
2023/10/06 09:20:13;;;;;;;11.77;9.23;;;;;;;7.45;100.00;97062.63;7427148;19;20965;-90
2023/10/06 09:23:52;;;;;;;10.63;8.97;;;;;;;7.38;100.00;97063.00;7426564;19;20390;-90
2023/10/06 09:35:24;;;;;;;12.20;10.87;;;;;;;5.58;100.00;96783.94;7428965;19;20484;-91
2023/10/06 09:39:23;;;;;;;;;;;;;;;;;;;;;
2023/10/06 09:43:14;;;;;;;11.70;9.93;;;;;;;7.67;100.00;97062.00;7429308;19;20392;-89
2023/10/06 09:46:59;;;;;;;;;;;;;;;;;;;;;
2023/10/06 10:01:15;;;;;;;12.97;10.83;;;;;;;6.46;100.00;96782.41;7431477;19;20740;-90
2023/10/06 10:05:01;;;;;;;;;;;;;;;;;;;;;
2023/10/06 10:08:25;;;;;;;12.63;10.17;;;;;;;8.78;100.00;97032.00;7404981;19;20477;-91
2023/10/06 10:44:37;;;;;;;11.53;9.17;;;;;;;8.53;100.00;96764.50;7430226;19;20396;-90
2023/10/06 10:47:15;;;;;;;13.93;10.90;;;;;;;7.39;100.00;96643.66;7428763;19;20463;-90
2023/10/06 10:49:47;;;;;;;12.03;10.60;;;;;;;7.66;100.00;96619.09;7431843;19;20383;-90
2023/10/06 10:52:21;;;;;;;11.27;10.10;;;;;;;7.92;100.00;96661.38;7426936;19;20710;-90
2023/10/06 10:54:56;;;;;;;11.97;8.77;;;;;;;8.01;100.00;96648.25;7431457;19;20379;-90
2023/10/06 10:57:47;;;;;;;12.60;9.10;;;;;;;9.76;100.00;96852.53;7429306;19;20435;-90
2023/10/06 11:01:17;;;;;;;9.37;8.50;;;;;;;9.04;100.00;96684.06;7430629;19;20906;-90
2023/10/06 11:04:12;;;;;;;10.57;8.33;;;;;;;10.03;100.00;96767.72;7429349;19;20386;-90
2023/10/06 11:07:01;;;;;;;11.60;8.53;;;;;;;9.14;100.00;96660.81;7427692;19;20416;-90
2023/10/06 11:09:47;;;;;;;8.57;7.63;;;;;;;9.76;100.00;96762.75;7431066;19;20462;-90
2023/10/06 11:12:29;;;;;;;8.90;7.27;;;;;;;10.26;100.00;96767.56;7429589;19;20431;-90
2023/10/06 11:15:15;;;;;;;8.40;7.33;;;;;;;10.98;100.00;96830.28;7428275;19;20380;-90
2023/10/06 11:17:43;;;;;;;7.07;6.27;;;;;;;10.19;100.00;96661.56;7430153;19;20484;-90
2023/10/06 11:20:33;;;;;;;6.50;5.90;;;;;;;10.43;100.00;96664.47;7430741;19;20406;-90
2023/10/06 11:23:22;;;;;;;11.43;7.07;;;;;;;11.28;100.00;96759.63;7427368;19;20466;-90
2023/10/06 11:26:06;;;;;;;8.50;5.90;;;;;;;10.68;100.00;96672.59;7432481;19;20758;-91
2023/10/06 11:28:42;;;;;;;8.20;6.40;;;;;;;12.31;100.00;96826.31;7429243;19;20415;-90
2023/10/06 11:31:12;;;;;;;8.87;4.43;;;;;;;12.14;100.00;96774.97;7429911;19;20396;-90
2023/10/06 11:33:44;;;;;;;8.90;5.27;;;;;;;12.27;100.00;96775.78;7411778;19;20392;-90
2023/10/06 11:36:12;;;;;;;15.50;6.73;;;;;;;11.86;100.00;96649.41;7399184;19;20921;-90
2023/10/06 11:38:48;;;;;;;6.23;4.53;;;;;;;12.01;100.00;96640.84;7398817;19;20397;-91
2023/10/06 11:41:28;;;;;;;8.40;4.47;;;;;;;12.50;100.00;96648.13;7398374;19;20381;-90
2023/10/06 11:43:58;;;;;;;10.37;5.10;;;;;;;13.49;100.00;96789.31;7398884;19;20969;-91
2023/10/06 11:46:59;;;;;;;7.17;4.10;;;;;;;14.61;100.00;96930.53;7400552;19;20376;-90
2023/10/06 11:49:33;;;;;;;5.50;3.90;;;;;;;13.67;100.00;96749.22;7399005;19;20375;-90
2023/10/06 11:52:05;;;;;;;5.90;3.10;;;;;;;12.93;100.00;96650.25;7413127;19;20464;-91
2023/10/06 11:54:41;;;;;;;7.50;4.27;;;;;;;14.19;100.00;96837.72;7412650;19;20376;-90
2023/10/06 11:57:09;;;;;;;4.73;3.83;;;;;;;13.11;100.00;96789.63;7397999;19;20412;-91
2023/10/06 11:59:36;;;;;;;5.90;3.80;;;;;;;12.65;100.00;96742.97;7398950;19;20384;-90
2023/10/06 12:02:09;;;;;;;9.60;4.63;;;;;;;11.77;100.00;96683.16;7396949;19;20376;-90
2023/10/06 12:04:37;;;;;;;7.80;4.00;;;;;;;12.76;100.00;96788.44;7402215;19;20388;-90
2023/10/06 12:07:19;;;;;;;5.00;3.83;;;;;;;12.47;100.00;96713.22;7397804;19;20448;-90
2023/10/06 12:09:50;;;;;;;7.87;4.60;;;;;;;13.88;100.00;96840.19;7397835;19;20379;-90
2023/10/06 12:12:22;;;;;;;10.67;4.60;;;;;;;14.15;100.00;96788.19;7401157;19;20396;-90
2023/10/06 12:14:53;;;;;;;7.00;3.23;;;;;;;14.30;100.00;96768.09;7397858;19;20380;-90
2023/10/06 12:17:20;;;;;;;7.70;4.40;;;;;;;14.24;100.00;96729.53;7397656;19;20472;-90
2023/10/06 12:19:50;;;;;;;10.53;3.87;;;;;;;13.60;100.00;96617.69;7397627;19;20385;-91
2023/10/06 12:22:18;;;;;;;6.20;3.80;;;;;;;14.87;100.00;96781.03;7396815;19;20373;-91
2023/10/06 12:25:07;;;;;;;7.20;4.63;;;;;;;14.86;100.00;96725.47;7398366;19;20385;-90
2023/10/06 12:27:34;;;;;;;10.00;4.63;;;;;;;14.40;100.00;96645.22;7398636;19;20421;-91
2023/10/06 12:30:06;;;;;;;8.80;3.70;;;;;;;14.74;100.00;96619.84;7397441;19;20372;-90
2023/10/06 12:32:38;;;;;;;8.63;3.87;;;;;;;15.26;100.00;96733.25;7400627;19;20384;-91
2023/10/06 20:35:58;;;;;;;13.43;7.10;;;;;;;8.15;100.00;96680.59;7405761;19;20364;-89
